createdAt,value
2023-01-11T00:03:25.243Z,98478.03
2023-01-11T00:08:29.155Z,98480.69
2023-01-11T00:13:34.944Z,98466.69
2023-01-11T00:18:38.637Z,98475.75
2023-01-11T00:23:42.362Z,98475.13
2023-01-11T00:28:49.403Z,98472.88
2023-01-11T00:33:53.196Z,98473.06
2023-01-11T00:38:56.755Z,98469.75
2023-01-11T00:44:00.415Z,98478.22
2023-01-11T00:49:03.882Z,98470.19
2023-01-11T00:54:07.569Z,98468.31
2023-01-11T00:59:10.850Z,98455.09
2023-01-11T01:04:15.537Z,98459.41
2023-01-11T01:09:19.731Z,98454.03
2023-01-11T01:14:23.026Z,98468.22
2023-01-11T01:19:26.420Z,98469.69
2023-01-11T01:24:30.330Z,98469.03
2023-01-11T01:29:33.850Z,98467.59
2023-01-11T01:34:40.207Z,98462.84
2023-01-11T01:39:43.663Z,98464.91
2023-01-11T01:45:00.965Z,98463.25
2023-01-11T01:50:18.249Z,98450.91
2023-01-11T01:55:31.956Z,98447.81
2023-01-11T02:00:35.589Z,98447.22
2023-01-11T02:05:39.295Z,98441.44
2023-01-11T02:10:43.346Z,98432.38
2023-01-11T02:15:47.496Z,98432.81
2023-01-11T02:21:17.234Z,98424.41
2023-01-11T02:26:39.335Z,98430.38
2023-01-11T02:31:56.229Z,98427.69
2023-01-11T02:37:31.333Z,98436.13
2023-01-11T02:42:49.081Z,98429.94
2023-01-11T02:48:00.499Z,98437.31
2023-01-11T02:53:24.608Z,98440.34
2023-01-11T02:58:33.497Z,98457.00
2023-01-11T03:03:37.115Z,98455.53
2023-01-11T03:09:14.805Z,98458.84
2023-01-11T03:14:18.065Z,98461.09
2023-01-11T03:19:24.224Z,98454.69
2023-01-11T03:24:52.948Z,98451.16
2023-01-11T03:30:09.622Z,98465.09
2023-01-11T03:35:27.057Z,98461.34
2023-01-11T03:41:06.011Z,98468.31
2023-01-11T03:46:17.545Z,98466.09
2023-01-11T03:51:30.476Z,98465.88
2023-01-11T03:57:10.862Z,98462.59
2023-01-11T04:02:19.721Z,98461.97
2023-01-11T04:07:23.079Z,98465.44
2023-01-11T04:12:26.758Z,98464.53
2023-01-11T04:17:30.175Z,98465.53
2023-01-11T04:22:33.549Z,98472.69
2023-01-11T04:27:38.103Z,98470.78
2023-01-11T04:32:42.811Z,98477.72
2023-01-11T04:37:46.209Z,98473.81
2023-01-11T04:42:49.824Z,98476.91
2023-01-11T04:47:56.837Z,98475.31
2023-01-11T04:53:00.187Z,98480.13
2023-01-11T04:58:03.597Z,98471.69
2023-01-11T05:03:06.779Z,98480.56
2023-01-11T05:08:10.132Z,98473.47
2023-01-11T05:13:13.391Z,98482.69
2023-01-11T05:18:16.867Z,98482.31
2023-01-11T05:23:20.137Z,98491.03
2023-01-11T05:28:23.055Z,98494.78
2023-01-11T05:33:26.647Z,98492.34
2023-01-11T05:38:30.516Z,98497.28
2023-01-11T05:43:34.516Z,98500.59
2023-01-11T05:48:38.611Z,98495.63
2023-01-11T05:53:42.389Z,98496.94
2023-01-11T05:58:48.670Z,98502.16
2023-01-11T06:03:52.740Z,98493.53
2023-01-11T06:08:56.273Z,98490.25
2023-01-11T06:13:59.827Z,98491.75
2023-01-11T06:19:05.029Z,98491.63
2023-01-11T06:24:09.588Z,98490.16
2023-01-11T06:29:13.031Z,98490.78
2023-01-11T06:34:16.789Z,98495.28
2023-01-11T06:39:20.305Z,98501.72
2023-01-11T06:44:25.420Z,98502.16
2023-01-11T06:49:28.474Z,98515.34
2023-01-11T06:54:32.010Z,98511.44
2023-01-11T06:59:36.461Z,98523.41
2023-01-11T07:04:39.519Z,98520.28
2023-01-11T07:09:43.038Z,98515.34
2023-01-11T07:14:46.526Z,98514.09
2023-01-11T07:19:49.994Z,98526.28
2023-01-11T07:24:53.452Z,98529.16
2023-01-11T07:29:56.836Z,98528.09
2023-01-11T07:34:59.914Z,98520.31
2023-01-11T07:40:03.005Z,98520.09
2023-01-11T07:45:07.809Z,98517.00
2023-01-11T07:50:11.407Z,98520.28
2023-01-11T07:55:15.413Z,98524.00
2023-01-11T08:00:19.429Z,98522.78
2023-01-11T08:05:24.458Z,98520.75
2023-01-11T08:10:27.825Z,98518.25
2023-01-11T08:15:33.028Z,98520.72
2023-01-11T08:20:37.120Z,98512.84
2023-01-11T08:25:40.564Z,98509.91
2023-01-11T08:30:43.728Z,98507.19
2023-01-11T08:35:49.537Z,98504.81
2023-01-11T08:40:53.191Z,98493.09
2023-01-11T08:45:56.721Z,98481.06
2023-01-11T08:51:00.068Z,98473.00
2023-01-11T08:56:03.534Z,98468.34
2023-01-11T09:01:07.010Z,98466.91
2023-01-11T09:06:12.647Z,98463.44
2023-01-11T09:11:15.737Z,98449.19
2023-01-11T09:16:19.177Z,98447.16
2023-01-11T09:21:25.822Z,98438.91
2023-01-11T09:26:29.623Z,98427.09
2023-01-11T09:31:33.151Z,98412.66
2023-01-11T09:36:36.866Z,98406.41
2023-01-11T09:42:22.803Z,98389.06
2023-01-11T09:47:47.839Z,98375.91
2023-01-11T09:52:58.706Z,98364.06
2023-01-11T09:58:13.942Z,98359.25
2023-01-11T10:03:32.014Z,98359.91
2023-01-11T10:18:22.128Z,98337.19
2023-01-11T10:20:01.018Z,98328.56
2023-01-11T10:25:15.397Z,98326.13
2023-01-11T10:30:20.825Z,98311.53
2023-01-11T10:35:30.036Z,98308.84
2023-01-11T10:40:58.982Z,98300.47
2023-01-11T10:46:14.007Z,98301.94
2023-01-11T10:51:33.021Z,98303.44
2023-01-11T10:57:03.017Z,98303.16
2023-01-11T11:02:25.428Z,98293.91
2023-01-11T11:07:46.640Z,98301.88
2023-01-11T11:13:15.243Z,98295.91
2023-01-11T11:18:19.433Z,98288.97
2023-01-11T11:23:25.444Z,98281.13
2023-01-11T11:28:33.188Z,98279.84
2023-01-11T11:33:39.150Z,98282.31
2023-01-11T11:39:05.700Z,98282.47
2023-01-11T11:44:27.464Z,98283.03
2023-01-11T11:49:33.378Z,98285.81
2023-01-11T11:54:41.119Z,98282.44
2023-01-11T11:59:48.449Z,98274.19
2023-01-11T12:04:54.019Z,98273.09
2023-01-11T12:10:02.984Z,98268.75
2023-01-11T12:15:16.845Z,98269.00
2023-01-11T12:20:23.359Z,98266.53
2023-01-11T12:25:28.340Z,98266.06
2023-01-11T12:30:40.996Z,98263.28
2023-01-11T12:36:12.372Z,98271.00
2023-01-11T12:41:21.499Z,98272.50
2023-01-11T12:47:01.998Z,98270.50
2023-01-11T12:52:36.499Z,98261.03
2023-01-11T12:57:59.378Z,98255.88
2023-01-11T13:03:14.591Z,98265.78
2023-01-11T13:08:44.751Z,98261.47
2023-01-11T13:14:01.820Z,98254.91
2023-01-11T13:19:21.478Z,98262.59
2023-01-11T13:24:31.638Z,98252.41
2023-01-11T13:29:44.261Z,98253.91
2023-01-11T13:34:59.977Z,98259.38
2023-01-11T13:40:24.600Z,98251.38
2023-01-11T13:45:37.935Z,98257.44
2023-01-11T13:50:51.657Z,98253.44
2023-01-11T13:56:00.021Z,98258.50
2023-01-11T14:01:21.834Z,98250.75
2023-01-11T14:06:44.129Z,98261.09
2023-01-11T14:12:05.729Z,98266.94
2023-01-11T14:17:47.515Z,98272.38
2023-01-11T14:22:56.492Z,98271.41
2023-01-11T14:28:25.737Z,98276.41
2023-01-11T14:33:29.479Z,98274.78
2023-01-11T14:38:41.635Z,98271.34
2023-01-11T14:44:00.326Z,98275.75
2023-01-11T14:49:31.231Z,98273.34
2023-01-11T14:54:45.566Z,98269.88
2023-01-11T14:59:49.905Z,98278.81
2023-01-11T15:04:53.281Z,98277.84
2023-01-11T15:10:00.340Z,98279.31
2023-01-11T15:15:08.484Z,98295.66
2023-01-11T15:20:15.504Z,98298.97
2023-01-11T15:25:25.140Z,98306.22
2023-01-11T15:30:31.609Z,98311.59
2023-01-11T15:35:35.640Z,98306.81
2023-01-11T15:40:44.282Z,98310.31
2023-01-11T15:45:54.424Z,98304.75
2023-01-11T15:51:26.255Z,98307.44
2023-01-11T15:56:35.311Z,98310.31
2023-01-11T16:02:14.188Z,98309.50
2023-01-11T16:07:36.045Z,98304.34
2023-01-11T16:13:16.455Z,98296.72
2023-01-11T16:18:23.082Z,98303.13
2023-01-11T16:23:30.177Z,98299.84
2023-01-11T16:28:33.951Z,98302.94
2023-01-11T16:33:37.384Z,98297.44
2023-01-11T16:39:00.833Z,98292.88
2023-01-11T16:44:09.219Z,98282.56
2023-01-11T16:49:19.761Z,98272.28
2023-01-11T16:54:33.714Z,98276.78
2023-01-11T16:59:37.480Z,98265.38
2023-01-11T17:04:51.979Z,98255.84
2023-01-11T17:10:15.695Z,98244.03
2023-01-11T17:15:57.686Z,98243.13
2023-01-11T17:21:01.264Z,98227.91
2023-01-11T17:26:08.992Z,98235.59
2023-01-11T17:31:26.783Z,98237.72
2023-01-11T17:36:32.222Z,98242.16
2023-01-11T17:41:37.249Z,98241.81
2023-01-11T17:46:40.817Z,98247.06
2023-01-11T17:51:47.929Z,98256.41
2023-01-11T17:56:58.801Z,98255.22
2023-01-11T18:02:11.374Z,98255.28
2023-01-11T18:07:19.774Z,98254.44
2023-01-11T18:12:33.543Z,98250.31
2023-01-11T18:17:39.782Z,98237.38
2023-01-11T18:22:58.056Z,98238.59
2023-01-11T18:28:29.543Z,98224.81
2023-01-11T18:33:34.395Z,98231.03
2023-01-11T18:38:37.645Z,98217.63
2023-01-11T18:43:40.677Z,98219.91
2023-01-11T18:48:44.003Z,98218.84
2023-01-11T18:53:47.411Z,98206.50
2023-01-11T18:58:51.225Z,98198.91
2023-01-11T19:03:54.769Z,98200.75
2023-01-11T19:08:58.348Z,98204.06
2023-01-11T19:14:03.498Z,98212.16
2023-01-11T19:19:07.305Z,98206.59
2023-01-11T19:24:12.285Z,98202.91
2023-01-11T19:29:15.896Z,98213.44
2023-01-11T19:34:20.248Z,98212.41
2023-01-11T19:39:25.097Z,98207.09
2023-01-11T19:44:32.539Z,98207.94
2023-01-11T19:49:35.969Z,98200.72
2023-01-11T19:54:43.244Z,98209.81
2023-01-11T19:59:50.079Z,98198.91
2023-01-11T20:04:53.643Z,98203.88
2023-01-11T20:09:57.985Z,98193.78
2023-01-11T20:15:08.080Z,98184.94
2023-01-11T20:20:14.507Z,98175.66
2023-01-11T20:25:19.251Z,98182.88
2023-01-11T20:30:23.723Z,98183.91
2023-01-11T20:35:28.582Z,98185.38
2023-01-11T20:40:31.858Z,98178.78
2023-01-11T20:45:35.171Z,98182.06
2023-01-11T20:50:39.332Z,98176.34
2023-01-11T20:55:42.480Z,98163.34
2023-01-11T21:00:45.629Z,98164.78
2023-01-11T21:05:48.984Z,98160.47
2023-01-11T21:10:53.203Z,98152.06
2023-01-11T21:15:56.814Z,98137.22
2023-01-11T21:21:05.234Z,98138.88
2023-01-11T21:26:23.260Z,98126.13
2023-01-11T21:31:32.424Z,98129.41
2023-01-11T21:36:35.911Z,98123.03
2023-01-11T21:41:39.629Z,98134.34
2023-01-11T21:46:42.999Z,98133.75
2023-01-11T21:51:46.454Z,98119.56
2023-01-11T21:56:50.599Z,98107.00
2023-01-11T22:01:54.197Z,98113.59
2023-01-11T22:06:59.186Z,98104.09
2023-01-11T22:12:03.197Z,98099.56
2023-01-11T22:17:07.660Z,98092.59
2023-01-11T22:22:12.173Z,98092.38
2023-01-11T22:27:15.538Z,98081.91
2023-01-11T22:32:19.150Z,98081.50
2023-01-11T22:37:23.210Z,98086.25
2023-01-11T22:42:27.009Z,98080.50
2023-01-11T22:47:30.405Z,98084.84
2023-01-11T22:52:33.683Z,98081.53
2023-01-11T22:57:36.957Z,98078.66
2023-01-11T23:02:40.307Z,98085.44
2023-01-11T23:07:43.993Z,98077.44
2023-01-11T23:12:47.648Z,98067.13
2023-01-11T23:17:51.033Z,98073.94
2023-01-11T23:22:54.182Z,98072.09
2023-01-11T23:27:57.238Z,98071.47
2023-01-11T23:33:00.586Z,98057.06
2023-01-11T23:38:03.908Z,98065.09
2023-01-11T23:43:07.205Z,98061.78
2023-01-11T23:48:10.457Z,98066.94
2023-01-11T23:53:15.021Z,98053.56
2023-01-11T23:58:18.050Z,98059.94
